createdAt,value
2023-11-26T00:00:49.583Z,101182.34
2023-11-26T00:03:20.576Z,101185.97
2023-11-26T00:05:47.249Z,101183.94
2023-11-26T00:08:14.061Z,101183.94
2023-11-26T00:10:40.675Z,101189.16
2023-11-26T00:13:07.946Z,101186.16
2023-11-26T00:15:34.582Z,101182.69
2023-11-26T00:18:02.844Z,101191.75
2023-11-26T00:20:29.678Z,101193.75
2023-11-26T00:22:56.369Z,101190.72
2023-11-26T00:25:23.176Z,101193.94
2023-11-26T00:27:49.862Z,101194.94
2023-11-26T00:30:16.475Z,101190.88
2023-11-26T00:32:43.637Z,101186.47
2023-11-26T00:35:10.357Z,101193.72
2023-11-26T00:37:37.287Z,101191.31
2023-11-26T00:40:07.058Z,101199.97
2023-11-26T00:42:33.758Z,101191.13
2023-11-26T00:45:00.935Z,101190.53
2023-11-26T00:47:27.789Z,101187.72
2023-11-26T00:49:56.304Z,101192.69
2023-11-26T00:52:23.018Z,101189.88
2023-11-26T00:54:49.672Z,101196.69
2023-11-26T00:57:16.560Z,101189.69
2023-11-26T00:59:43.418Z,101199.31
2023-11-26T01:02:11.411Z,101199.31
2023-11-26T01:04:38.112Z,101204.75
2023-11-26T01:07:07.296Z,101200.53
2023-11-26T01:09:33.987Z,101208.78
2023-11-26T01:12:00.773Z,101195.53
2023-11-26T01:14:27.637Z,101197.91
2023-11-26T01:16:54.520Z,101203.94
2023-11-26T01:19:21.366Z,101196.75
2023-11-26T01:21:48.027Z,101207.00
2023-11-26T01:24:14.740Z,101195.69
2023-11-26T01:26:44.086Z,101203.13
2023-11-26T01:29:10.754Z,101209.41
2023-11-26T01:31:37.637Z,101205.44
2023-11-26T01:34:04.766Z,101205.78
2023-11-26T01:36:31.514Z,101209.81
2023-11-26T01:38:58.249Z,101208.59
2023-11-26T01:41:24.967Z,101209.03
2023-11-26T01:43:52.038Z,101212.44
2023-11-26T01:46:20.661Z,101218.25
2023-11-26T01:48:47.757Z,101215.81
2023-11-26T01:51:16.186Z,101214.41
2023-11-26T01:53:47.077Z,101209.84
2023-11-26T01:56:15.306Z,101212.44
2023-11-26T01:58:42.071Z,101214.25
2023-11-26T02:01:08.710Z,101210.47
2023-11-26T02:03:35.682Z,101222.91
2023-11-26T02:06:02.877Z,101211.91
2023-11-26T02:08:30.160Z,101218.72
2023-11-26T02:10:57.038Z,101217.31
2023-11-26T02:13:23.679Z,101219.13
2023-11-26T02:15:50.600Z,101217.72
2023-11-26T02:18:18.610Z,101219.16
2023-11-26T02:20:45.220Z,101225.59
2023-11-26T02:23:12.003Z,101222.19
2023-11-26T02:25:38.681Z,101222.38
2023-11-26T02:28:07.360Z,101219.41
2023-11-26T02:30:35.469Z,101214.00
2023-11-26T02:33:02.419Z,101213.41
2023-11-26T02:35:29.465Z,101212.22
2023-11-26T02:37:56.950Z,101217.84
2023-11-26T02:40:23.675Z,101220.44
2023-11-26T02:42:50.369Z,101221.03
2023-11-26T02:45:17.065Z,101223.06
2023-11-26T02:47:44.798Z,101227.88
2023-11-26T02:50:11.900Z,101227.91
2023-11-26T02:52:39.901Z,101227.28
2023-11-26T02:55:07.326Z,101222.06
2023-11-26T02:57:33.947Z,101218.66
2023-11-26T03:00:02.044Z,101228.50
2023-11-26T03:02:36.048Z,101229.53
2023-11-26T03:05:07.419Z,101228.16
2023-11-26T03:07:36.021Z,101225.31
2023-11-26T03:10:22.336Z,101228.16
2023-11-26T03:13:08.417Z,101225.75
2023-11-26T03:15:39.414Z,101231.75
2023-11-26T03:18:09.550Z,101225.34
2023-11-26T03:20:37.687Z,101225.53
2023-11-26T03:23:05.840Z,101234.34
2023-11-26T03:25:34.601Z,101229.75
2023-11-26T03:28:01.203Z,101231.56
2023-11-26T03:30:27.883Z,101231.34
2023-11-26T03:32:56.480Z,101234.16
2023-11-26T03:35:23.348Z,101232.78
2023-11-26T03:37:50.111Z,101236.75
2023-11-26T03:40:16.874Z,101230.78
2023-11-26T03:42:43.489Z,101233.19
2023-11-26T03:45:10.761Z,101230.59
2023-11-26T03:47:37.404Z,101233.38
2023-11-26T03:50:09.876Z,101235.38
2023-11-26T03:52:37.203Z,101239.41
2023-11-26T03:55:04.191Z,101226.97
2023-11-26T03:57:31.289Z,101232.97
2023-11-26T03:59:58.573Z,101236.56
2023-11-26T04:02:25.656Z,101236.38
2023-11-26T04:04:53.007Z,101236.00
2023-11-26T04:07:20.217Z,101236.59
2023-11-26T04:09:48.467Z,101231.97
2023-11-26T04:12:15.124Z,101236.38
2023-11-26T04:14:54.860Z,101241.59
2023-11-26T04:17:22.660Z,101242.59
2023-11-26T04:19:50.669Z,101233.16
2023-11-26T04:22:20.281Z,101239.16
2023-11-26T04:24:48.463Z,101241.75
2023-11-26T04:27:15.074Z,101238.34
2023-11-26T04:29:41.890Z,101245.59
2023-11-26T04:32:09.150Z,101245.38
2023-11-26T04:34:36.026Z,101247.00
2023-11-26T04:37:13.316Z,101244.59
2023-11-26T04:39:39.938Z,101244.81
2023-11-26T04:42:06.965Z,101243.97
2023-11-26T04:44:36.266Z,101243.81
2023-11-26T04:47:03.249Z,101255.44
2023-11-26T04:49:30.198Z,101250.66
2023-11-26T04:51:56.789Z,101256.66
2023-11-26T04:54:23.510Z,101268.69
2023-11-26T04:56:50.534Z,101257.84
2023-11-26T04:59:18.010Z,101258.66
2023-11-26T05:01:50.509Z,101246.22
2023-11-26T05:04:17.382Z,101247.00
2023-11-26T05:06:44.305Z,101258.47
2023-11-26T05:09:15.050Z,101261.66
2023-11-26T05:11:47.831Z,101263.47
2023-11-26T05:14:14.704Z,101263.06
2023-11-26T05:16:42.502Z,101255.00
2023-11-26T05:19:09.176Z,101258.03
2023-11-26T05:21:35.813Z,101267.44
2023-11-26T05:24:02.522Z,101261.25
2023-11-26T05:26:29.185Z,101260.59
2023-11-26T05:28:56.648Z,101255.00
2023-11-26T05:31:23.880Z,101256.81
2023-11-26T05:33:52.989Z,101255.19
2023-11-26T05:36:20.660Z,101243.97
2023-11-26T05:38:47.914Z,101252.03
2023-11-26T05:41:14.748Z,101252.59
2023-11-26T05:43:41.461Z,101263.25
2023-11-26T05:46:09.023Z,101257.47
2023-11-26T05:48:36.103Z,101256.66
2023-11-26T05:51:06.083Z,101266.09
2023-11-26T05:53:33.987Z,101259.25
2023-11-26T05:56:00.778Z,101252.63
2023-11-26T05:58:27.488Z,101261.84
2023-11-26T06:00:55.179Z,101261.88
2023-11-26T06:03:23.241Z,101266.25
2023-11-26T06:05:50.058Z,101280.09
2023-11-26T06:08:17.317Z,101263.25
2023-11-26T06:10:44.140Z,101266.06
2023-11-26T06:13:10.751Z,101271.25
2023-11-26T06:15:37.474Z,101266.44
2023-11-26T06:18:05.059Z,101273.25
2023-11-26T06:20:31.846Z,101265.41
2023-11-26T06:22:58.672Z,101268.03
2023-11-26T06:25:25.661Z,101265.22
2023-11-26T06:27:52.701Z,101260.22
2023-11-26T06:30:19.886Z,101253.41
2023-11-26T06:32:46.651Z,101256.44
2023-11-26T06:35:13.637Z,101252.84
2023-11-26T06:37:40.735Z,101256.22
2023-11-26T06:40:10.310Z,101261.28
2023-11-26T06:42:40.574Z,101258.25
2023-11-26T06:45:08.991Z,101257.84
2023-11-26T06:47:36.033Z,101256.63
2023-11-26T06:50:02.808Z,101263.03
2023-11-26T06:52:31.541Z,101264.66
2023-11-26T06:54:58.578Z,101259.22
2023-11-26T06:57:25.266Z,101259.63
2023-11-26T06:59:51.883Z,101261.25
2023-11-26T07:02:18.514Z,101257.81
2023-11-26T07:04:45.906Z,101260.00
2023-11-26T07:07:12.679Z,101253.00
2023-11-26T07:09:41.201Z,101262.06
2023-11-26T07:12:09.596Z,101266.88
2023-11-26T07:14:36.582Z,101257.41
2023-11-26T07:17:03.197Z,101266.06
2023-11-26T07:19:29.812Z,101250.81
2023-11-26T07:21:57.095Z,101248.59
2023-11-26T07:24:24.075Z,101247.41
2023-11-26T07:26:50.805Z,101253.41
2023-11-26T07:29:17.504Z,101252.38
2023-11-26T07:31:48.775Z,101254.97
2023-11-26T07:34:15.492Z,101246.56
2023-11-26T07:36:42.414Z,101253.75
2023-11-26T07:39:10.435Z,101251.38
2023-11-26T07:41:38.395Z,101258.19
2023-11-26T07:44:11.378Z,101258.22
2023-11-26T07:46:38.499Z,101262.25
2023-11-26T07:49:06.974Z,101265.00
2023-11-26T07:51:33.680Z,101276.81
2023-11-26T07:54:00.312Z,101275.22
2023-11-26T07:56:26.963Z,101275.84
2023-11-26T07:58:53.598Z,101276.63
2023-11-26T08:01:20.292Z,101283.63
2023-11-26T08:03:47.020Z,101280.44
2023-11-26T08:06:16.943Z,101280.41
2023-11-26T08:08:45.229Z,101276.00
2023-11-26T08:11:14.628Z,101281.72
2023-11-26T08:13:43.275Z,101268.44
2023-11-26T08:16:11.624Z,101277.81
2023-11-26T08:18:38.986Z,101277.69
2023-11-26T08:21:08.095Z,101275.66
2023-11-26T08:23:43.185Z,101273.59
2023-11-26T08:26:14.226Z,101278.63
2023-11-26T08:28:42.414Z,101274.34
2023-11-26T08:31:09.385Z,101270.13
2023-11-26T08:33:43.059Z,101270.59
2023-11-26T08:36:11.339Z,101269.28
2023-11-26T08:38:43.362Z,101264.84
2023-11-26T08:41:15.394Z,101265.63
2023-11-26T08:43:45.518Z,101269.22
2023-11-26T08:46:16.342Z,101266.63
2023-11-26T08:48:45.404Z,101257.19
2023-11-26T08:51:12.749Z,101259.19
2023-11-26T08:53:39.551Z,101269.56
2023-11-26T08:56:07.036Z,101268.22
2023-11-26T08:58:33.679Z,101265.44
2023-11-26T09:01:00.668Z,101272.84
2023-11-26T09:03:27.405Z,101270.19
2023-11-26T09:05:54.224Z,101266.22
2023-11-26T09:08:21.229Z,101263.56
2023-11-26T09:10:48.173Z,101258.31
2023-11-26T09:13:15.054Z,101264.09
2023-11-26T09:15:43.165Z,101275.50
2023-11-26T09:18:10.597Z,101267.25
2023-11-26T09:20:40.844Z,101270.88
2023-11-26T09:23:09.002Z,101260.91
2023-11-26T09:25:36.035Z,101256.88
2023-11-26T09:28:04.378Z,101255.88
2023-11-26T09:30:32.166Z,101259.94
2023-11-26T09:32:58.952Z,101254.66
2023-11-26T09:35:25.776Z,101251.66
2023-11-26T09:37:52.906Z,101250.25
2023-11-26T09:40:19.790Z,101250.59
2023-11-26T09:42:51.537Z,101263.88
2023-11-26T09:45:20.295Z,101249.06
2023-11-26T09:47:47.543Z,101251.50
2023-11-26T09:50:14.915Z,101252.41
2023-11-26T09:52:42.203Z,101251.34
2023-11-26T09:55:10.533Z,101262.81
2023-11-26T09:57:42.399Z,101255.28
2023-11-26T10:00:14.048Z,101251.22
2023-11-26T10:02:43.624Z,101248.81
2023-11-26T10:05:26.275Z,101242.38
2023-11-26T10:07:54.093Z,101248.41
2023-11-26T10:10:21.984Z,101245.66
2023-11-26T10:12:58.225Z,101250.53
2023-11-26T10:15:32.843Z,101246.31
2023-11-26T10:18:08.743Z,101245.13
2023-11-26T10:20:40.495Z,101242.81
2023-11-26T10:23:09.834Z,101243.09
2023-11-26T10:25:42.203Z,101237.97
2023-11-26T10:28:14.836Z,101238.50
2023-11-26T10:30:41.503Z,101237.13
2023-11-26T10:33:09.997Z,101241.19
2023-11-26T10:35:53.768Z,101231.53
2023-11-26T10:38:32.299Z,101240.69
2023-11-26T10:41:00.797Z,101237.69
2023-11-26T10:43:33.771Z,101235.25
2023-11-26T10:46:06.814Z,101233.41
2023-11-26T10:48:34.227Z,101230.59
2023-11-26T10:51:20.572Z,101233.25
2023-11-26T10:54:09.785Z,101226.81
2023-11-26T10:56:39.392Z,101226.97
2023-11-26T10:59:09.281Z,101222.41
2023-11-26T11:01:38.309Z,101224.66
2023-11-26T11:04:13.501Z,101224.53
2023-11-26T11:06:40.483Z,101222.38
2023-11-26T11:09:14.632Z,101221.81
2023-11-26T11:11:44.244Z,101222.75
2023-11-26T11:14:12.137Z,101217.34
2023-11-26T11:16:39.007Z,101210.78
2023-11-26T11:19:05.693Z,101215.59
2023-11-26T11:21:32.394Z,101221.75
2023-11-26T11:23:59.226Z,101217.19
2023-11-26T11:26:26.757Z,101220.69
2023-11-26T11:28:57.256Z,101224.03
2023-11-26T11:31:44.556Z,101216.00
2023-11-26T11:34:13.941Z,101221.16
2023-11-26T11:36:46.062Z,101218.75
2023-11-26T11:39:16.292Z,101218.94
2023-11-26T11:42:06.045Z,101215.25
2023-11-26T11:44:36.513Z,101217.66
2023-11-26T11:47:07.719Z,101219.84
2023-11-26T11:49:46.701Z,101215.25
2023-11-26T11:52:15.147Z,101210.66
2023-11-26T11:55:00.798Z,101210.59
2023-11-26T11:57:46.674Z,101215.72
2023-11-26T12:00:16.462Z,101214.50
2023-11-26T12:02:43.439Z,101217.69
2023-11-26T12:05:27.136Z,101215.09
2023-11-26T12:07:56.618Z,101212.25
2023-11-26T12:10:34.239Z,101210.78
2023-11-26T12:13:05.935Z,101207.34
2023-11-26T12:15:33.383Z,101202.03
2023-11-26T12:18:00.901Z,101211.47
2023-11-26T12:20:28.483Z,101205.91
2023-11-26T12:22:57.710Z,101204.09
2023-11-26T12:25:24.721Z,101209.03
2023-11-26T12:28:08.315Z,101207.03
2023-11-26T12:30:38.764Z,101197.81
2023-11-26T12:33:06.882Z,101204.00
2023-11-26T12:35:37.625Z,101203.63
2023-11-26T12:38:06.464Z,101199.56
2023-11-26T12:40:34.678Z,101187.75
2023-11-26T12:43:01.552Z,101200.28
2023-11-26T12:45:28.237Z,101194.22
2023-11-26T12:47:57.041Z,101184.78
2023-11-26T12:50:25.265Z,101186.47
2023-11-26T12:52:53.530Z,101182.28
2023-11-26T12:55:20.619Z,101174.88
2023-11-26T12:57:47.942Z,101180.13
2023-11-26T13:00:16.034Z,101179.22
2023-11-26T13:02:45.294Z,101173.38
2023-11-26T13:05:29.016Z,101172.38
2023-11-26T13:08:00.550Z,101183.38
2023-11-26T13:10:47.276Z,101181.63
2023-11-26T13:13:40.529Z,101185.03
2023-11-26T13:16:09.132Z,101182.66
2023-11-26T13:18:35.989Z,101176.84
2023-11-26T13:21:05.512Z,101174.22
2023-11-26T13:23:32.346Z,101177.13
2023-11-26T13:26:00.770Z,101176.97
2023-11-26T13:28:30.107Z,101170.94
2023-11-26T13:30:57.261Z,101177.56
2023-11-26T13:33:24.053Z,101170.50
2023-11-26T13:35:53.310Z,101169.91
2023-11-26T13:38:21.952Z,101166.72
2023-11-26T13:40:49.376Z,101165.38
2023-11-26T13:43:25.485Z,101171.72
2023-11-26T13:45:52.531Z,101171.63
2023-11-26T13:48:24.414Z,101160.94
2023-11-26T13:50:52.602Z,101159.00
2023-11-26T13:53:19.284Z,101161.25
2023-11-26T13:55:46.082Z,101152.28
2023-11-26T13:58:12.801Z,101146.09
2023-11-26T14:00:39.751Z,101154.97
2023-11-26T14:03:06.653Z,101141.13
2023-11-26T14:05:33.443Z,101137.13
2023-11-26T14:08:00.064Z,101145.06
2023-11-26T14:10:32.069Z,101139.19
2023-11-26T14:13:02.960Z,101153.50
2023-11-26T14:15:30.703Z,101145.88
2023-11-26T14:17:57.685Z,101156.22
2023-11-26T14:20:24.811Z,101151.63
2023-11-26T14:22:54.649Z,101145.38
2023-11-26T14:25:21.684Z,101147.56
2023-11-26T14:27:50.781Z,101145.06
2023-11-26T14:30:19.398Z,101147.56
2023-11-26T14:32:48.650Z,101144.97
2023-11-26T14:35:15.925Z,101154.53
2023-11-26T14:37:45.178Z,101143.56
2023-11-26T14:40:13.995Z,101143.56
2023-11-26T14:42:43.555Z,101145.06
2023-11-26T14:45:12.191Z,101143.00
2023-11-26T14:47:40.087Z,101148.47
2023-11-26T14:50:07.262Z,101137.19
2023-11-26T14:52:39.876Z,101133.78
2023-11-26T14:55:11.377Z,101133.31
2023-11-26T14:57:38.169Z,101124.66
2023-11-26T15:00:08.326Z,101134.34
2023-11-26T15:02:34.959Z,101124.47
2023-11-26T15:05:01.643Z,101126.28
2023-11-26T15:07:28.608Z,101124.47
2023-11-26T15:09:55.225Z,101109.56
2023-11-26T15:12:22.512Z,101106.34
2023-11-26T15:14:49.182Z,101105.22
2023-11-26T15:17:15.891Z,101103.88
2023-11-26T15:19:42.767Z,101112.16
2023-11-26T15:22:09.599Z,101104.84
2023-11-26T15:24:38.568Z,101104.53
2023-11-26T15:27:08.028Z,101116.00
2023-11-26T15:29:34.804Z,101113.38
2023-11-26T15:32:05.286Z,101116.00
2023-11-26T15:34:34.943Z,101113.97
2023-11-26T15:37:02.193Z,101104.63
2023-11-26T15:39:29.414Z,101107.03
2023-11-26T15:41:57.898Z,101106.88
2023-11-26T15:44:25.446Z,101099.94
2023-11-26T15:46:53.101Z,101104.72
2023-11-26T15:49:20.241Z,101113.59
2023-11-26T15:51:47.240Z,101103.03
2023-11-26T15:54:14.341Z,101096.31
2023-11-26T15:56:41.012Z,101098.59
2023-11-26T15:59:08.093Z,101107.69
2023-11-26T16:01:34.844Z,101102.34
2023-11-26T16:04:02.464Z,101096.88
2023-11-26T16:06:30.095Z,101094.47
2023-11-26T16:09:01.659Z,101092.31
2023-11-26T16:11:28.347Z,101091.66
2023-11-26T16:13:56.424Z,101089.25
2023-11-26T16:16:23.453Z,101090.19
2023-11-26T16:18:52.658Z,101093.59
2023-11-26T16:21:20.150Z,101089.84
2023-11-26T16:23:46.777Z,101085.03
2023-11-26T16:26:13.394Z,101083.91
2023-11-26T16:28:40.275Z,101084.25
2023-11-26T16:31:07.918Z,101080.59
2023-11-26T16:33:49.939Z,101088.56
2023-11-26T16:36:23.656Z,101085.63
2023-11-26T16:38:50.566Z,101090.47
2023-11-26T16:41:20.112Z,101094.69
2023-11-26T16:43:49.449Z,101088.88
2023-11-26T16:46:18.083Z,101088.66
2023-11-26T16:48:46.182Z,101078.41
2023-11-26T16:51:13.973Z,101086.06
2023-11-26T16:53:40.660Z,101082.22
2023-11-26T16:56:09.045Z,101080.50
2023-11-26T16:58:36.197Z,101085.50
2023-11-26T17:01:04.701Z,101081.50
2023-11-26T17:03:32.629Z,101083.66
2023-11-26T17:06:00.427Z,101079.53
2023-11-26T17:08:30.857Z,101085.56
2023-11-26T17:10:59.002Z,101082.16
2023-11-26T17:13:31.707Z,101083.97
2023-11-26T17:15:58.765Z,101078.75
2023-11-26T17:18:25.591Z,101086.44
2023-11-26T17:20:52.278Z,101084.03
2023-11-26T17:23:19.364Z,101075.91
2023-11-26T17:25:51.698Z,101081.34
2023-11-26T17:28:20.342Z,101082.22
2023-11-26T17:30:50.621Z,101078.00
2023-11-26T17:33:19.433Z,101085.84
2023-11-26T17:35:46.918Z,101084.19
2023-11-26T17:38:13.849Z,101080.53
2023-11-26T17:40:41.019Z,101075.91
2023-11-26T17:43:08.200Z,101080.13
2023-11-26T17:45:35.324Z,101088.38
2023-11-26T17:48:02.320Z,101076.34
2023-11-26T17:50:30.075Z,101070.94
2023-11-26T17:53:07.135Z,101079.81
2023-11-26T17:55:37.519Z,101077.56
2023-11-26T17:58:04.542Z,101077.13
2023-11-26T18:00:33.054Z,101072.34
2023-11-26T18:03:00.191Z,101073.34
2023-11-26T18:05:27.236Z,101082.22
2023-11-26T18:07:56.443Z,101063.09
2023-11-26T18:10:23.671Z,101075.84
2023-11-26T18:12:50.858Z,101075.59
2023-11-26T18:15:20.581Z,101073.72
2023-11-26T18:17:47.875Z,101072.75
2023-11-26T18:20:18.491Z,101071.63
2023-11-26T18:22:45.456Z,101063.19
2023-11-26T18:25:13.388Z,101069.00
2023-11-26T18:27:40.378Z,101074.56
2023-11-26T18:30:07.820Z,101055.22
2023-11-26T18:32:34.721Z,101051.94
2023-11-26T18:35:01.337Z,101055.25
2023-11-26T18:37:29.511Z,101068.56
2023-11-26T18:39:57.000Z,101063.31
2023-11-26T18:42:23.733Z,101049.59
2023-11-26T18:44:50.575Z,101052.06
2023-11-26T18:47:17.804Z,101050.13
2023-11-26T18:49:44.647Z,101047.22
2023-11-26T18:52:16.548Z,101047.22
2023-11-26T18:54:44.799Z,101050.53
2023-11-26T18:57:11.773Z,101043.72
2023-11-26T18:59:39.845Z,101039.06
2023-11-26T19:02:08.110Z,101048.63
2023-11-26T19:04:37.383Z,101037.44
2023-11-26T19:07:05.195Z,101033.47
2023-11-26T19:09:31.909Z,101031.53
2023-11-26T19:11:58.970Z,101045.34
2023-11-26T19:14:25.627Z,101047.03
2023-11-26T19:16:53.076Z,101036.97
2023-11-26T19:19:20.446Z,101032.88
2023-11-26T19:21:47.294Z,101035.50
2023-11-26T19:24:14.239Z,101036.06
2023-11-26T19:26:40.836Z,101030.56
2023-11-26T19:29:07.727Z,101019.97
2023-11-26T19:31:34.460Z,101022.50
2023-11-26T19:34:01.431Z,101022.31
2023-11-26T19:36:28.300Z,101015.53
2023-11-26T19:38:55.095Z,101016.84
2023-11-26T19:41:22.484Z,101026.13
2023-11-26T19:43:49.615Z,101031.94
2023-11-26T19:46:17.837Z,101014.66
2023-11-26T19:48:47.289Z,101022.06
2023-11-26T19:51:19.725Z,101009.22
2023-11-26T19:53:47.022Z,101006.03
2023-11-26T19:56:16.057Z,101005.81
2023-11-26T19:58:44.195Z,101007.25
2023-11-26T20:01:11.916Z,101004.44
2023-11-26T20:03:39.171Z,101009.56
2023-11-26T20:06:06.592Z,101009.56
2023-11-26T20:08:33.477Z,101009.22
2023-11-26T20:11:01.917Z,101006.72
2023-11-26T20:13:29.589Z,100999.34
2023-11-26T20:15:57.531Z,100995.13
2023-11-26T20:18:24.980Z,101000.28
2023-11-26T20:20:52.219Z,101000.72
2023-11-26T20:23:18.987Z,100997.53
2023-11-26T20:25:46.100Z,100992.75
2023-11-26T20:28:12.970Z,100988.09
2023-11-26T20:30:46.851Z,100985.69
2023-11-26T20:33:16.606Z,100987.94
2023-11-26T20:35:43.499Z,100970.31
2023-11-26T20:38:10.374Z,100979.69
2023-11-26T20:40:37.127Z,100983.13
2023-11-26T20:43:04.477Z,100972.34
2023-11-26T20:45:31.216Z,100970.31
2023-11-26T20:47:58.210Z,100968.28
2023-11-26T20:50:25.004Z,100968.28
2023-11-26T20:52:51.699Z,100978.75
2023-11-26T20:55:18.508Z,100970.13
2023-11-26T20:57:45.986Z,100970.53
2023-11-26T21:00:14.334Z,100968.84
2023-11-26T21:02:44.676Z,100953.53
2023-11-26T21:05:11.862Z,100947.19
2023-11-26T21:07:38.735Z,100939.72
2023-11-26T21:10:09.579Z,100947.81
2023-11-26T21:12:36.468Z,100951.34
2023-11-26T21:15:06.040Z,100950.16
2023-11-26T21:17:36.449Z,100957.41
2023-11-26T21:20:04.125Z,100943.44
2023-11-26T21:22:31.626Z,100939.44
2023-11-26T21:24:58.333Z,100941.97
2023-11-26T21:27:25.339Z,100929.19
2023-11-26T21:29:52.023Z,100929.66
2023-11-26T21:32:19.748Z,100920.88
2023-11-26T21:34:46.500Z,100930.00
2023-11-26T21:37:14.669Z,100937.41
2023-11-26T21:39:45.240Z,100932.09
2023-11-26T21:42:16.064Z,100934.47
2023-11-26T21:44:42.813Z,100925.94
2023-11-26T21:47:09.631Z,100923.25
2023-11-26T21:49:36.604Z,100907.78
2023-11-26T21:52:04.688Z,100891.28
2023-11-26T21:54:31.664Z,100900.66
2023-11-26T21:56:58.409Z,100902.25
2023-11-26T21:59:25.499Z,100894.13
2023-11-26T22:01:52.571Z,100891.66
2023-11-26T22:04:19.877Z,100896.16
2023-11-26T22:06:47.532Z,100894.84
2023-11-26T22:09:14.845Z,100884.84
2023-11-26T22:11:41.800Z,100887.22
2023-11-26T22:14:08.465Z,100890.00
2023-11-26T22:16:35.366Z,100885.09
2023-11-26T22:19:05.105Z,100884.97
2023-11-26T22:21:32.977Z,100876.72
2023-11-26T22:23:59.582Z,100875.97
2023-11-26T22:26:26.481Z,100866.78
2023-11-26T22:28:53.121Z,100864.09
2023-11-26T22:31:21.950Z,100867.50
2023-11-26T22:33:48.935Z,100852.84
2023-11-26T22:36:23.181Z,100857.06
2023-11-26T22:38:50.494Z,100850.44
2023-11-26T22:41:26.079Z,100841.31
2023-11-26T22:43:53.605Z,100837.47
2023-11-26T22:46:24.766Z,100841.53
2023-11-26T22:48:54.125Z,100843.94
2023-11-26T22:51:21.543Z,100838.41
2023-11-26T22:53:48.552Z,100840.59
2023-11-26T22:56:15.981Z,100844.78
2023-11-26T22:58:43.729Z,100841.47
2023-11-26T23:01:11.616Z,100833.44
2023-11-26T23:03:39.190Z,100838.41
2023-11-26T23:06:10.171Z,100828.06
2023-11-26T23:08:37.471Z,100822.72
2023-11-26T23:11:04.504Z,100823.03
2023-11-26T23:13:33.505Z,100819.09
2023-11-26T23:16:00.495Z,100813.06
2023-11-26T23:18:27.514Z,100812.47
2023-11-26T23:20:56.997Z,100813.13
2023-11-26T23:23:34.869Z,100812.56
2023-11-26T23:26:09.755Z,100808.16
2023-11-26T23:28:36.697Z,100803.94
2023-11-26T23:31:03.705Z,100790.38
2023-11-26T23:33:30.527Z,100794.31
2023-11-26T23:35:57.607Z,100785.69
2023-11-26T23:38:24.341Z,100783.50
2023-11-26T23:40:51.716Z,100784.28
2023-11-26T23:43:19.213Z,100783.50
2023-11-26T23:45:46.458Z,100785.34
2023-11-26T23:48:13.417Z,100768.91
2023-11-26T23:50:40.222Z,100778.97
2023-11-26T23:53:07.976Z,100767.09
2023-11-26T23:55:37.895Z,100763.09
2023-11-26T23:58:05.016Z,100761.16
